createdAt,value
2018-02-02T00:00:16.514Z,2.40
2018-02-02T00:02:42.773Z,2.30
2018-02-02T00:05:09.004Z,2.30
2018-02-02T00:07:35.251Z,2.20
2018-02-02T00:10:01.536Z,2.10
2018-02-02T00:12:27.790Z,2.20
2018-02-02T00:14:54.023Z,2.20
2018-02-02T00:17:20.273Z,2.20
2018-02-02T00:19:47.248Z,2.00
2018-02-02T00:22:13.521Z,2.00
2018-02-02T00:24:39.799Z,1.90
2018-02-02T00:27:06.106Z,1.80
2018-02-02T00:29:33.153Z,1.80
2018-02-02T00:32:00.164Z,1.70
2018-02-02T00:34:27.203Z,1.80
2018-02-02T00:36:53.444Z,1.80
2018-02-02T00:39:19.724Z,2.00
2018-02-02T00:41:46.032Z,2.10
2018-02-02T00:44:13.044Z,2.20
2018-02-02T00:46:39.353Z,2.10
2018-02-02T00:49:05.605Z,2.10
2018-02-02T00:51:38.154Z,2.20
2018-02-02T00:54:04.450Z,2.20
2018-02-02T00:56:31.463Z,2.10
2018-02-02T00:58:57.753Z,2.10
2018-02-02T01:01:24.063Z,2.00
2018-02-02T01:03:51.072Z,2.00
2018-02-02T01:06:17.329Z,2.00
2018-02-02T01:08:44.348Z,2.00
2018-02-02T01:11:10.641Z,2.00
2018-02-02T01:13:36.929Z,2.00
2018-02-02T01:16:03.238Z,2.00
2018-02-02T01:18:29.506Z,1.90
2018-02-02T01:20:56.554Z,1.70
2018-02-02T01:23:22.850Z,1.70
2018-02-02T01:25:49.194Z,1.50
2018-02-02T01:28:15.520Z,1.40
2018-02-02T01:30:41.780Z,1.30
2018-02-02T01:33:08.807Z,1.30
2018-02-02T01:35:35.051Z,1.20
2018-02-02T01:38:02.914Z,1.20
2018-02-02T01:40:29.897Z,1.20
2018-02-02T01:42:56.199Z,1.20
2018-02-02T01:45:23.252Z,1.20
2018-02-02T01:47:53.392Z,1.20
2018-02-02T01:50:19.697Z,1.10
2018-02-02T01:52:46.728Z,1.20
2018-02-02T01:55:13.043Z,1.10
2018-02-02T01:57:39.304Z,1.20
2018-02-02T02:00:06.322Z,1.20
2018-02-02T02:02:32.587Z,1.20
2018-02-02T02:04:59.592Z,1.20
2018-02-02T02:07:25.949Z,1.20
2018-02-02T02:09:52.189Z,1.20
2018-02-02T02:14:50.046Z,1.30
2018-02-02T02:17:16.323Z,1.30
2018-02-02T02:19:42.597Z,1.30
2018-02-02T02:22:08.874Z,1.30
2018-02-02T02:24:35.161Z,1.20
2018-02-02T02:27:01.487Z,1.20
2018-02-02T02:29:27.755Z,1.20
2018-02-02T02:31:54.746Z,1.40
2018-02-02T02:34:21.039Z,1.40
2018-02-02T02:36:48.043Z,1.40
2018-02-02T02:39:14.395Z,1.40
2018-02-02T02:41:40.707Z,1.60
2018-02-02T02:44:06.949Z,1.70
2018-02-02T02:46:33.975Z,1.60
2018-02-02T02:49:00.264Z,1.60
2018-02-02T02:51:26.552Z,1.70
2018-02-02T02:53:52.855Z,1.70
2018-02-02T02:56:19.144Z,1.80
2018-02-02T02:58:45.388Z,1.90
2018-02-02T03:01:11.667Z,2.00
2018-02-02T03:03:37.916Z,2.00
2018-02-02T03:06:04.920Z,2.00
2018-02-02T03:08:31.187Z,2.00
2018-02-02T03:10:57.476Z,2.00
2018-02-02T03:13:23.770Z,1.90
2018-02-02T03:15:50.118Z,1.80
2018-02-02T03:18:16.392Z,1.60
2018-02-02T03:20:42.688Z,1.40
2018-02-02T03:23:09.028Z,1.30
2018-02-02T03:25:35.284Z,1.20
2018-02-02T03:28:01.608Z,1.10
2018-02-02T03:30:27.887Z,1.10
2018-02-02T03:32:54.880Z,1.30
2018-02-02T03:35:21.128Z,1.20
2018-02-02T03:37:47.386Z,1.30
2018-02-02T03:40:14.387Z,1.30
2018-02-02T03:42:40.663Z,1.30
2018-02-02T03:45:07.755Z,1.20
2018-02-02T03:47:33.979Z,1.20
2018-02-02T03:50:00.236Z,1.20
2018-02-02T03:52:26.531Z,1.20
2018-02-02T03:54:52.803Z,1.40
2018-02-02T03:57:19.090Z,1.60
2018-02-02T03:59:45.319Z,1.80
2018-02-02T04:02:11.576Z,1.80
2018-02-02T04:04:37.807Z,1.80
2018-02-02T04:07:04.136Z,1.80
2018-02-02T04:09:30.402Z,1.80
2018-02-02T04:11:56.650Z,1.80
2018-02-02T04:14:22.904Z,1.80
2018-02-02T04:16:49.287Z,1.80
2018-02-02T04:19:15.576Z,1.70
2018-02-02T04:21:41.962Z,1.60
2018-02-02T04:24:08.236Z,1.60
2018-02-02T04:26:34.626Z,1.50
2018-02-02T04:29:01.611Z,1.60
2018-02-02T04:31:31.101Z,1.50
2018-02-02T04:33:57.361Z,1.50
2018-02-02T04:36:23.623Z,1.60
2018-02-02T04:38:50.631Z,1.40
2018-02-02T04:41:16.939Z,1.40
2018-02-02T04:43:43.211Z,1.30
2018-02-02T04:46:09.535Z,1.40
2018-02-02T04:48:35.883Z,1.30
2018-02-02T04:51:02.899Z,1.10
2018-02-02T04:53:29.237Z,1.10
2018-02-02T04:55:55.438Z,1.00
2018-02-02T04:58:21.708Z,0.90
2018-02-02T05:00:47.966Z,0.80
2018-02-02T05:03:14.956Z,0.70
2018-02-02T05:05:41.228Z,0.60
2018-02-02T05:08:07.491Z,0.50
2018-02-02T05:10:33.832Z,0.50
2018-02-02T05:13:00.084Z,0.50
2018-02-02T05:15:26.385Z,0.50
2018-02-02T05:17:52.648Z,0.40
2018-02-02T05:20:18.872Z,0.50
2018-02-02T05:22:45.170Z,0.40
2018-02-02T05:25:11.448Z,0.40
2018-02-02T05:27:37.732Z,0.40
2018-02-02T05:30:04.082Z,0.40
2018-02-02T05:32:30.301Z,0.40
2018-02-02T05:34:56.555Z,0.40
2018-02-02T05:37:22.849Z,0.40
2018-02-02T05:39:49.129Z,0.50
2018-02-02T05:42:15.459Z,0.50
2018-02-02T05:44:41.821Z,0.50
2018-02-02T05:47:08.821Z,0.50
2018-02-02T05:49:35.221Z,0.60
2018-02-02T05:52:01.451Z,0.40
2018-02-02T05:54:27.722Z,0.30
2018-02-02T05:56:53.989Z,0.20
2018-02-02T05:59:20.979Z,0.20
2018-02-02T06:01:47.285Z,0.20
2018-02-02T06:04:13.555Z,0.20
2018-02-02T06:06:39.923Z,0.20
2018-02-02T06:09:07.001Z,0.10
2018-02-02T06:11:33.284Z,0.10
2018-02-02T06:13:59.688Z,0.10
2018-02-02T06:16:26.084Z,0.00
2018-02-02T06:18:53.056Z,0.10
2018-02-02T06:21:19.368Z,0.00
2018-02-02T06:23:45.626Z,0.10
2018-02-02T06:26:11.932Z,0.00
2018-02-02T06:28:38.256Z,0.00
2018-02-02T06:31:05.310Z,-0.10
2018-02-02T06:33:31.619Z,-0.10
2018-02-02T06:35:58.635Z,0.00
2018-02-02T06:38:24.915Z,0.00
2018-02-02T06:40:51.881Z,0.00
2018-02-02T06:43:18.150Z,0.00
2018-02-02T06:45:44.433Z,-0.10
2018-02-02T06:48:10.707Z,-0.20
2018-02-02T06:50:36.993Z,-0.20
2018-02-02T06:53:03.240Z,-0.20
2018-02-02T06:55:29.531Z,-0.20
2018-02-02T06:57:56.544Z,-0.20
2018-02-02T07:00:22.834Z,-0.20
2018-02-02T07:02:49.087Z,-0.20
2018-02-02T07:05:15.366Z,-0.20
2018-02-02T07:07:42.356Z,-0.20
2018-02-02T07:10:08.660Z,-0.20
2018-02-02T07:12:34.928Z,-0.20
2018-02-02T07:15:01.202Z,-0.10
2018-02-02T07:17:28.246Z,0.00
2018-02-02T07:19:55.272Z,0.00
2018-02-02T07:22:21.516Z,0.00
2018-02-02T07:24:47.772Z,0.10
2018-02-02T07:27:14.012Z,0.20
2018-02-02T07:29:40.304Z,0.30
2018-02-02T07:32:06.556Z,0.40
2018-02-02T07:34:32.843Z,0.50
2018-02-02T07:36:59.123Z,0.60
2018-02-02T07:39:25.446Z,0.80
2018-02-02T07:41:51.695Z,0.90
2018-02-02T07:44:17.961Z,1.10
2018-02-02T07:46:44.230Z,1.20
2018-02-02T07:49:11.203Z,1.50
2018-02-02T07:51:37.441Z,1.40
2018-02-02T07:54:03.737Z,1.60
2018-02-02T07:56:29.987Z,1.60
2018-02-02T07:58:56.207Z,1.60
2018-02-02T08:01:22.447Z,1.70
2018-02-02T08:03:48.737Z,1.80
2018-02-02T08:06:15.728Z,2.00
2018-02-02T08:08:42.066Z,2.00
2018-02-02T08:11:08.360Z,2.10
2018-02-02T08:13:35.386Z,2.30
2018-02-02T08:16:01.644Z,2.30
2018-02-02T08:18:27.872Z,2.50
2018-02-02T08:20:54.213Z,2.60
2018-02-02T08:23:21.256Z,2.80
2018-02-02T08:25:47.552Z,2.80
2018-02-02T08:28:13.820Z,2.90
2018-02-02T08:30:40.115Z,3.00
2018-02-02T08:33:06.387Z,3.20
2018-02-02T08:35:32.699Z,3.30
2018-02-02T08:37:59.691Z,3.60
2018-02-02T08:40:25.956Z,3.50
2018-02-02T08:42:52.231Z,3.60
2018-02-02T08:45:18.539Z,3.70
2018-02-02T08:47:44.813Z,3.70
2018-02-02T08:50:11.094Z,3.60
2018-02-02T08:52:38.113Z,3.70
2018-02-02T08:55:04.380Z,3.70
2018-02-02T08:57:30.727Z,3.70
2018-02-02T08:59:57.037Z,3.70
2018-02-02T09:02:24.047Z,3.90
2018-02-02T09:04:50.440Z,3.90
2018-02-02T09:07:17.797Z,4.00
2018-02-02T09:09:44.076Z,4.10
2018-02-02T09:12:10.449Z,4.10
2018-02-02T09:14:36.732Z,4.10
2018-02-02T09:17:02.992Z,4.30
2018-02-02T09:19:30.018Z,4.20
2018-02-02T09:21:56.560Z,4.20
2018-02-02T09:24:23.602Z,4.30
2018-02-02T09:26:49.850Z,4.30
2018-02-02T09:29:16.912Z,4.40
2018-02-02T09:31:43.232Z,4.40
2018-02-02T09:34:10.249Z,4.40
2018-02-02T09:36:37.265Z,4.30
2018-02-02T09:39:03.567Z,4.30
2018-02-02T09:41:29.867Z,4.30
2018-02-02T09:43:56.147Z,4.30
2018-02-02T09:46:22.431Z,4.40
2018-02-02T09:48:49.440Z,4.50
2018-02-02T09:51:15.715Z,4.40
2018-02-02T09:53:42.004Z,4.50
2018-02-02T09:56:08.284Z,4.50
2018-02-02T09:58:35.273Z,4.50
2018-02-02T10:01:01.577Z,4.50
2018-02-02T10:03:27.832Z,4.60
2018-02-02T10:05:54.108Z,4.60
2018-02-02T10:08:20.501Z,4.70
2018-02-02T10:10:47.260Z,4.80
2018-02-02T10:13:14.514Z,4.80
2018-02-02T10:15:41.579Z,4.80
2018-02-02T10:18:08.049Z,4.80
2018-02-02T10:20:34.413Z,4.90
2018-02-02T10:23:00.675Z,4.80
2018-02-02T10:25:27.707Z,5.00
2018-02-02T10:27:53.939Z,5.00
2018-02-02T10:30:20.263Z,5.10
2018-02-02T10:32:46.517Z,5.00
2018-02-02T10:35:13.802Z,5.00
2018-02-02T10:37:40.057Z,5.00
2018-02-02T10:40:06.359Z,5.00
2018-02-02T10:42:32.628Z,4.90
2018-02-02T10:44:58.926Z,5.00
2018-02-02T10:47:25.184Z,5.10
2018-02-02T10:49:51.541Z,5.10
2018-02-02T10:52:17.795Z,5.20
2018-02-02T10:54:44.808Z,5.30
2018-02-02T10:57:11.080Z,5.30
2018-02-02T10:59:37.442Z,5.20
2018-02-02T11:02:09.881Z,5.20
2018-02-02T11:04:36.945Z,5.30
2018-02-02T11:07:03.257Z,5.30
2018-02-02T11:09:30.303Z,5.40
2018-02-02T11:11:56.550Z,5.40
2018-02-02T11:14:22.864Z,5.30
2018-02-02T11:16:49.910Z,5.30
2018-02-02T11:19:17.076Z,5.40
2018-02-02T11:21:43.390Z,5.40
2018-02-02T11:24:10.471Z,6.00
2018-02-02T11:26:36.743Z,6.00
2018-02-02T11:29:03.118Z,6.10
2018-02-02T11:31:29.392Z,6.50
2018-02-02T11:33:55.673Z,6.70
2018-02-02T11:36:21.923Z,7.10
2018-02-02T11:38:48.189Z,7.90
2018-02-02T11:41:14.601Z,8.10
2018-02-02T11:43:40.861Z,8.70
2018-02-02T11:46:07.139Z,9.10
2018-02-02T11:48:34.498Z,9.50
2018-02-02T11:51:00.728Z,9.00
2018-02-02T11:53:26.976Z,9.40
2018-02-02T11:55:53.276Z,9.50
2018-02-02T11:58:19.614Z,9.30
2018-02-02T12:00:45.962Z,9.90
2018-02-02T12:03:12.330Z,11.20
2018-02-02T12:05:38.592Z,10.70
2018-02-02T12:08:04.860Z,11.40
2018-02-02T12:10:31.234Z,11.70
2018-02-02T12:12:58.262Z,10.70
2018-02-02T12:15:24.664Z,10.70
2018-02-02T12:17:50.906Z,9.90
2018-02-02T12:20:17.744Z,10.30
2018-02-02T12:22:46.931Z,10.80
2018-02-02T12:25:16.141Z,10.70
2018-02-02T12:30:54.144Z,11.10
2018-02-02T12:33:26.524Z,12.10
2018-02-02T12:38:58.942Z,12.20
2018-02-02T12:41:25.214Z,11.80
2018-02-02T12:43:52.388Z,9.60
2018-02-02T12:46:18.678Z,9.60
2018-02-02T12:48:57.136Z,9.00
2018-02-02T12:51:23.415Z,8.90
2018-02-02T12:53:49.906Z,7.90
2018-02-02T12:56:16.292Z,7.70
2018-02-02T12:58:42.576Z,8.10
2018-02-02T13:01:08.918Z,9.10
2018-02-02T13:03:35.250Z,12.00
2018-02-02T13:06:01.604Z,13.40
2018-02-02T13:08:28.121Z,11.70
2018-02-02T13:10:54.452Z,9.70
2018-02-02T13:13:20.804Z,8.30
2018-02-02T13:15:47.153Z,7.60
2018-02-02T13:18:14.240Z,8.00
2018-02-02T13:20:40.592Z,8.00
2018-02-02T13:23:07.724Z,8.10
2018-02-02T13:25:33.999Z,8.10
2018-02-02T13:28:00.410Z,7.90
2018-02-02T13:30:26.715Z,8.00
2018-02-02T13:32:53.044Z,8.40
2018-02-02T13:35:19.321Z,8.90
2018-02-02T13:37:46.407Z,8.60
2018-02-02T13:40:14.516Z,8.00
2018-02-02T13:42:41.630Z,7.80
2018-02-02T13:45:07.913Z,7.80
2018-02-02T13:47:34.221Z,7.80
2018-02-02T13:50:00.537Z,7.90
2018-02-02T13:52:26.818Z,7.50
2018-02-02T13:54:53.209Z,7.60
2018-02-02T13:57:19.544Z,7.50
2018-02-02T13:59:45.945Z,7.60
2018-02-02T14:02:12.272Z,7.50
2018-02-02T14:04:39.265Z,7.50
2018-02-02T14:07:05.544Z,7.50
2018-02-02T14:09:32.597Z,7.10
2018-02-02T14:11:58.916Z,7.10
2018-02-02T14:14:25.657Z,7.00
2018-02-02T14:16:51.944Z,6.90
2018-02-02T14:19:18.251Z,7.00
2018-02-02T14:21:44.598Z,6.80
2018-02-02T14:24:10.892Z,6.80
2018-02-02T14:26:37.157Z,6.70
2018-02-02T14:29:03.500Z,6.50
2018-02-02T14:31:29.818Z,6.40
2018-02-02T14:33:56.173Z,6.30
2018-02-02T14:36:22.446Z,6.30
2018-02-02T14:38:49.496Z,6.20
2018-02-02T14:41:15.852Z,6.20
2018-02-02T14:43:42.110Z,6.20
2018-02-02T14:46:08.416Z,6.10
2018-02-02T14:48:34.754Z,6.00
2018-02-02T14:51:01.072Z,6.00
2018-02-02T14:53:27.445Z,6.00
2018-02-02T14:55:53.756Z,6.00
2018-02-02T14:58:20.039Z,5.90
2018-02-02T15:00:46.319Z,5.80
2018-02-02T15:03:12.655Z,5.70
2018-02-02T15:05:38.927Z,5.70
2018-02-02T15:08:05.397Z,5.80
2018-02-02T15:10:31.883Z,5.90
2018-02-02T15:12:58.165Z,5.90
2018-02-02T15:15:24.483Z,5.80
2018-02-02T15:17:50.901Z,5.90
2018-02-02T15:20:17.954Z,5.80
2018-02-02T15:22:44.448Z,5.80
2018-02-02T15:25:10.752Z,5.80
2018-02-02T15:27:37.076Z,5.70
2018-02-02T15:30:03.400Z,5.70
2018-02-02T15:32:29.680Z,5.70
2018-02-02T15:34:56.100Z,5.70
2018-02-02T15:37:22.424Z,5.60
2018-02-02T15:39:48.748Z,5.50
2018-02-02T15:42:15.038Z,5.30
2018-02-02T15:44:41.378Z,5.40
2018-02-02T15:47:07.877Z,5.40
2018-02-02T15:49:34.200Z,5.40
2018-02-02T15:52:00.488Z,5.50
2018-02-02T15:54:26.892Z,5.50
2018-02-02T15:56:54.020Z,5.50
2018-02-02T15:59:20.272Z,5.50
2018-02-02T16:01:46.548Z,5.50
2018-02-02T16:04:12.906Z,5.40
2018-02-02T16:06:39.156Z,5.20
2018-02-02T16:09:05.427Z,5.40
2018-02-02T16:11:31.755Z,5.40
2018-02-02T16:13:58.061Z,5.30
2018-02-02T16:16:24.316Z,5.20
2018-02-02T16:18:50.714Z,5.20
2018-02-02T16:21:17.784Z,5.10
2018-02-02T16:23:44.163Z,5.10
2018-02-02T16:26:10.467Z,5.20
2018-02-02T16:28:36.749Z,5.20
2018-02-02T16:31:03.772Z,5.20
2018-02-02T16:33:30.069Z,5.10
2018-02-02T16:35:56.394Z,5.20
2018-02-02T16:38:22.704Z,5.20
2018-02-02T16:40:49.007Z,5.20
2018-02-02T16:43:15.329Z,5.20
2018-02-02T16:45:41.607Z,5.10
2018-02-02T16:48:07.963Z,5.10
2018-02-02T16:50:34.282Z,5.10
2018-02-02T16:53:00.588Z,5.20
2018-02-02T16:55:26.876Z,5.20
2018-02-02T16:57:53.195Z,5.30
2018-02-02T17:00:19.499Z,5.40
2018-02-02T17:02:45.928Z,5.50
2018-02-02T17:05:12.237Z,5.50
2018-02-02T17:07:39.332Z,5.60
2018-02-02T17:10:05.657Z,5.50
2018-02-02T17:12:31.992Z,5.60
2018-02-02T17:14:58.334Z,5.60
2018-02-02T17:17:24.624Z,5.60
2018-02-02T17:19:50.933Z,5.70
2018-02-02T17:22:18.025Z,5.40
2018-02-02T17:24:44.332Z,5.40
2018-02-02T17:27:10.704Z,5.40
2018-02-02T17:29:37.188Z,5.40
2018-02-02T17:32:04.296Z,5.30
2018-02-02T17:34:31.471Z,5.30
2018-02-02T17:36:58.793Z,5.30
2018-02-02T17:39:25.278Z,5.20
2018-02-02T17:41:52.322Z,5.20
2018-02-02T17:44:19.353Z,5.20
2018-02-02T17:46:45.751Z,5.20
2018-02-02T17:49:12.148Z,5.20
2018-02-02T17:51:38.407Z,5.20
2018-02-02T17:54:04.865Z,5.20
2018-02-02T17:56:31.261Z,5.20
2018-02-02T17:58:57.597Z,5.20
2018-02-02T18:01:24.904Z,5.30
2018-02-02T18:03:52.094Z,5.20
2018-02-02T18:06:18.438Z,5.20
2018-02-02T18:08:44.846Z,5.20
2018-02-02T18:11:11.183Z,5.30
2018-02-02T18:13:37.568Z,5.20
2018-02-02T18:16:04.062Z,5.30
2018-02-02T18:18:30.404Z,5.20
2018-02-02T18:20:56.806Z,5.10
2018-02-02T18:23:24.089Z,5.20
2018-02-02T18:25:50.705Z,5.20
2018-02-02T18:28:17.133Z,5.10
2018-02-02T18:30:43.541Z,5.00
2018-02-02T18:33:10.067Z,5.00
2018-02-02T18:35:36.494Z,5.10
2018-02-02T18:38:02.928Z,5.10
2018-02-02T18:40:29.318Z,5.10
2018-02-02T18:42:55.642Z,5.00
2018-02-02T18:45:22.028Z,5.00
2018-02-02T18:47:48.360Z,5.10
2018-02-02T18:50:14.808Z,5.10
2018-02-02T18:52:41.100Z,5.10
2018-02-02T18:55:07.462Z,5.00
2018-02-02T18:57:33.786Z,5.00
2018-02-02T19:00:00.090Z,4.90
2018-02-02T19:02:26.382Z,4.90
2018-02-02T19:04:52.717Z,4.90
2018-02-02T19:07:20.852Z,4.90
2018-02-02T19:09:47.213Z,4.90
2018-02-02T19:12:13.522Z,4.80
2018-02-02T19:14:42.039Z,4.80
2018-02-02T19:17:08.533Z,4.80
2018-02-02T19:19:35.987Z,4.80
2018-02-02T19:22:02.460Z,4.80
2018-02-02T19:24:28.927Z,4.70
2018-02-02T19:26:55.386Z,4.70
2018-02-02T19:29:32.969Z,4.70
2018-02-02T19:31:59.257Z,4.70
2018-02-02T19:34:25.573Z,4.80
2018-02-02T19:36:51.948Z,4.70
2018-02-02T19:39:21.980Z,4.70
2018-02-02T19:41:48.296Z,4.70
2018-02-02T19:44:14.666Z,4.70
2018-02-02T19:46:41.070Z,4.70
2018-02-02T19:49:07.366Z,4.70
2018-02-02T19:51:33.690Z,4.70
2018-02-02T19:54:00.754Z,4.60
2018-02-02T19:56:27.146Z,4.60
2018-02-02T19:58:53.529Z,4.70
2018-02-02T20:01:19.911Z,4.60
2018-02-02T20:03:46.962Z,4.70
2018-02-02T20:08:47.021Z,4.60
2018-02-02T20:11:13.314Z,4.60
2018-02-02T20:13:39.686Z,4.60
2018-02-02T20:16:05.990Z,4.50
2018-02-02T20:18:32.309Z,4.40
2018-02-02T20:20:59.628Z,4.40
2018-02-02T20:23:25.978Z,4.40
2018-02-02T20:25:52.380Z,4.40
2018-02-02T20:28:19.633Z,4.40
2018-02-02T20:30:46.073Z,4.40
2018-02-02T20:33:12.388Z,4.30
2018-02-02T20:35:38.843Z,4.30
2018-02-02T20:38:05.217Z,4.30
2018-02-02T20:40:31.679Z,4.40
2018-02-02T20:42:58.079Z,4.30
2018-02-02T20:45:24.423Z,4.40
2018-02-02T20:47:50.864Z,4.40
2018-02-02T20:50:17.183Z,4.30
2018-02-02T20:52:44.367Z,4.40
2018-02-02T20:55:11.655Z,4.40
2018-02-02T20:57:38.034Z,4.40
2018-02-02T21:00:05.129Z,4.40
2018-02-02T21:02:31.530Z,4.40
2018-02-02T21:04:57.960Z,4.40
2018-02-02T21:07:24.427Z,4.40
2018-02-02T21:09:50.764Z,4.40
2018-02-02T21:12:17.172Z,4.50
2018-02-02T21:14:43.527Z,4.50
2018-02-02T21:17:09.967Z,4.50
2018-02-02T21:19:36.312Z,4.50
2018-02-02T21:22:02.636Z,4.50
2018-02-02T21:24:28.959Z,4.50
2018-02-02T21:26:55.563Z,4.50
2018-02-02T21:29:22.709Z,4.50
2018-02-02T21:31:49.118Z,4.50
2018-02-02T21:34:16.258Z,4.50
2018-02-02T21:36:42.648Z,4.60
2018-02-02T21:39:08.991Z,4.50
2018-02-02T21:41:35.304Z,4.50
2018-02-02T21:44:01.682Z,4.50
2018-02-02T21:46:28.027Z,4.50
2018-02-02T21:48:54.393Z,4.60
2018-02-02T21:51:21.444Z,4.50
2018-02-02T21:53:47.823Z,4.50
2018-02-02T21:56:14.161Z,4.60
2018-02-02T21:58:40.507Z,4.50
2018-02-02T22:01:06.835Z,4.60
2018-02-02T22:03:33.940Z,4.60
2018-02-02T22:06:00.243Z,4.60
2018-02-02T22:08:26.588Z,4.60
2018-02-02T22:10:53.601Z,4.60
2018-02-02T22:13:20.790Z,4.70
2018-02-02T22:15:47.190Z,4.70
2018-02-02T22:18:14.216Z,4.60
2018-02-02T22:20:40.624Z,4.60
2018-02-02T22:23:06.984Z,4.70
2018-02-02T22:25:33.254Z,4.60
2018-02-02T22:27:59.695Z,4.60
2018-02-02T22:30:25.992Z,4.60
2018-02-02T22:32:53.014Z,4.60
2018-02-02T22:35:19.326Z,4.60
2018-02-02T22:37:45.596Z,4.60
2018-02-02T22:40:12.642Z,4.60
2018-02-02T22:42:39.700Z,4.60
2018-02-02T22:45:06.779Z,4.70
2018-02-02T22:47:33.075Z,4.70
2018-02-02T22:50:00.116Z,4.70
2018-02-02T22:52:27.114Z,4.70
2018-02-02T22:54:53.413Z,4.60
2018-02-02T22:57:20.473Z,4.60
2018-02-02T22:59:46.792Z,4.60
2018-02-02T23:02:13.855Z,4.60
2018-02-02T23:04:40.153Z,4.60
2018-02-02T23:07:07.153Z,4.70
2018-02-02T23:09:33.524Z,4.70
2018-02-02T23:11:59.807Z,4.70
2018-02-02T23:14:26.113Z,4.70
2018-02-02T23:16:52.395Z,4.70
2018-02-02T23:19:18.653Z,4.80
2018-02-02T23:21:45.724Z,4.70
2018-02-02T23:24:12.001Z,4.70
2018-02-02T23:26:38.287Z,4.80
2018-02-02T23:29:04.563Z,4.80
2018-02-02T23:31:30.838Z,4.80
2018-02-02T23:33:57.844Z,4.70
2018-02-02T23:36:31.128Z,4.70
2018-02-02T23:38:57.396Z,4.70
2018-02-02T23:41:24.488Z,4.70
2018-02-02T23:43:50.770Z,4.70
2018-02-02T23:46:17.259Z,4.70
2018-02-02T23:48:43.938Z,4.70
2018-02-02T23:51:11.370Z,4.50
2018-02-02T23:53:38.174Z,4.50
2018-02-02T23:56:04.483Z,4.50
2018-02-02T23:58:31.495Z,4.60
